Time;durP1;ratioP1;P1;durP2;ratioP2;P2;SDS_P1;SDS_P2;PMS_P1;PMS_P2;Temp;Humidity;BMP_temperature;BMP_pressure;BME280_temperature;BME280_humidity;BME280_pressure;Samples;Min_cycle;Max_cycle;Signal;HPM_P1;HPM_P2
2023/04/15 00:01:25;;;;;;;8.73;4.50;;;9.80;99.90;;;;;;5013738;28;20083;-54
2023/04/15 00:03:53;;;;;;;7.85;4.28;;;9.80;99.90;;;;;;4995996;28;20085;-54
2023/04/15 00:06:22;;;;;;;11.40;4.47;;;9.70;99.90;;;;;;5007917;28;20374;-53
2023/04/15 00:08:49;;;;;;;9.43;4.32;;;9.70;99.90;;;;;;5012079;28;20041;-51
2023/04/15 00:11:15;;;;;;;10.25;4.70;;;9.60;99.90;;;;;;5009655;28;20119;-51
2023/04/15 00:13:42;;;;;;;10.75;4.60;;;9.60;99.90;;;;;;5011730;28;20049;-52
2023/04/15 00:16:09;;;;;;;12.15;4.40;;;9.60;99.90;;;;;;5013542;28;20088;-54
2023/04/15 00:18:37;;;;;;;9.13;4.25;;;9.60;99.90;;;;;;5012514;28;20050;-55
2023/04/15 00:21:03;;;;;;;9.73;4.35;;;9.60;99.90;;;;;;5012116;28;20048;-55
2023/04/15 00:23:29;;;;;;;10.65;4.38;;;9.60;99.90;;;;;;5010758;28;20045;-55
2023/04/15 00:25:55;;;;;;;8.82;4.72;;;9.50;99.90;;;;;;5011601;28;20045;-56
2023/04/15 00:28:21;;;;;;;9.35;4.30;;;9.50;99.90;;;;;;5010779;28;20116;-47
2023/04/15 00:30:47;;;;;;;7.68;4.38;;;9.40;99.90;;;;;;5011174;28;20033;-49
2023/04/15 00:33:13;;;;;;;9.80;4.38;;;9.40;99.90;;;;;;5010857;28;20400;-49
2023/04/15 00:35:39;;;;;;;8.93;4.22;;;9.30;99.90;;;;;;5009486;28;20486;-56
2023/04/15 00:38:07;;;;;;;10.07;4.78;;;9.30;99.90;;;;;;5001364;28;20200;-54
2023/04/15 00:40:33;;;;;;;8.75;4.50;;;9.40;99.90;;;;;;5009646;28;20484;-52
2023/04/15 00:42:58;;;;;;;10.05;4.50;;;9.20;99.90;;;;;;5010759;28;20046;-51
2023/04/15 00:45:25;;;;;;;10.65;5.05;;;9.20;99.90;;;;;;4993282;28;20504;-51
2023/04/15 00:47:51;;;;;;;10.13;4.78;;;9.10;99.90;;;;;;5009863;28;20049;-55
2023/04/15 00:50:16;;;;;;;11.40;4.97;;;9.10;99.90;;;;;;5011549;28;20473;-53
2023/04/15 00:52:42;;;;;;;12.43;5.20;;;9.10;99.90;;;;;;5011054;28;20066;-55
2023/04/15 00:55:08;;;;;;;11.23;4.63;;;9.10;99.90;;;;;;5010960;28;20053;-52
2023/04/15 00:57:35;;;;;;;8.60;4.47;;;9.00;99.90;;;;;;5010615;28;20112;-55
2023/04/15 01:00:02;;;;;;;13.25;4.82;;;9.00;99.90;;;;;;5011501;28;20073;-47
2023/04/15 01:02:27;;;;;;;11.25;4.38;;;9.00;99.90;;;;;;5009522;28;20045;-51
2023/04/15 01:04:53;;;;;;;10.95;5.13;;;8.90;99.90;;;;;;5010189;28;20061;-52
2023/04/15 01:07:19;;;;;;;9.02;4.53;;;8.90;99.90;;;;;;5010296;28;20456;-54
2023/04/15 01:09:45;;;;;;;8.85;4.70;;;8.80;99.90;;;;;;5012298;28;20045;-47
2023/04/15 01:12:15;;;;;;;8.70;4.85;;;8.80;99.90;;;;;;5012364;28;20038;-54
2023/04/15 01:14:41;;;;;;;11.05;4.88;;;8.80;99.90;;;;;;5011684;28;20053;-50
2023/04/15 01:17:07;;;;;;;8.50;4.82;;;8.80;99.90;;;;;;5008054;28;20038;-48
2023/04/15 01:19:35;;;;;;;13.52;4.97;;;8.80;99.90;;;;;;5011031;28;20548;-49
2023/04/15 01:22:02;;;;;;;9.38;4.97;;;8.70;99.90;;;;;;5010243;28;20112;-51
2023/04/15 01:24:30;;;;;;;11.30;4.80;;;8.70;99.90;;;;;;5010437;28;20100;-52
2023/04/15 01:26:56;;;;;;;9.23;4.97;;;8.70;99.90;;;;;;4975555;28;20084;-50
2023/04/15 01:29:22;;;;;;;9.73;4.70;;;8.60;99.90;;;;;;5009876;28;20093;-51
2023/04/15 01:31:50;;;;;;;8.57;4.80;;;8.60;99.90;;;;;;5009711;28;20052;-55
2023/04/15 01:34:16;;;;;;;9.30;4.68;;;8.50;99.90;;;;;;5009395;28;20038;-54
2023/04/15 01:36:42;;;;;;;8.77;5.00;;;8.50;99.90;;;;;;5009141;28;20033;-53
2023/04/15 01:39:07;;;;;;;10.20;4.90;;;8.40;99.90;;;;;;5010791;28;20034;-53
2023/04/15 01:41:33;;;;;;;7.63;4.55;;;8.50;99.90;;;;;;5009529;28;20048;-54
2023/04/15 01:43:58;;;;;;;7.03;4.35;;;8.30;99.90;;;;;;5011204;28;20124;-58
2023/04/15 01:46:24;;;;;;;11.30;5.22;;;8.30;99.90;;;;;;5009965;28;20034;-53
2023/04/15 01:48:50;;;;;;;10.25;5.25;;;8.20;99.90;;;;;;5009396;28;20049;-57
2023/04/15 01:51:16;;;;;;;10.32;4.75;;;8.20;99.90;;;;;;5006267;28;20053;-51
2023/04/15 01:53:42;;;;;;;9.55;4.78;;;8.10;99.90;;;;;;5009392;28;20038;-52
2023/04/15 01:56:07;;;;;;;10.82;5.10;;;8.10;99.90;;;;;;5009902;28;20500;-54
2023/04/15 01:58:33;;;;;;;11.85;5.55;;;8.00;99.90;;;;;;4992715;28;20444;-50
2023/04/15 02:00:59;;;;;;;9.02;4.80;;;8.00;99.90;;;;;;5010058;28;20038;-52
2023/04/15 02:03:25;;;;;;;11.68;4.95;;;8.10;99.90;;;;;;5009280;28;20370;-54
2023/04/15 02:05:50;;;;;;;10.73;5.15;;;7.90;99.90;;;;;;5010018;28;20070;-47
2023/04/15 02:08:16;;;;;;;9.23;5.15;;;7.90;99.90;;;;;;5009526;28;20397;-49
2023/04/15 02:10:42;;;;;;;9.23;5.07;;;7.80;99.90;;;;;;5010312;28;20034;-51
2023/04/15 02:13:08;;;;;;;12.60;5.40;;;7.80;99.90;;;;;;5008323;28;20168;-51
2023/04/15 02:15:34;;;;;;;10.13;4.75;;;7.70;99.90;;;;;;5009813;28;20369;-50
2023/04/15 02:18:00;;;;;;;9.13;5.32;;;7.70;99.90;;;;;;5011043;28;20058;-54
2023/04/15 02:20:26;;;;;;;10.13;5.15;;;7.70;99.90;;;;;;5010775;28;20081;-56
2023/04/15 02:22:52;;;;;;;10.90;5.47;;;7.70;99.90;;;;;;5009275;28;20502;-52
2023/04/15 02:25:19;;;;;;;12.00;5.50;;;7.60;99.90;;;;;;5009107;28;20040;-49
2023/04/15 02:27:44;;;;;;;10.77;5.95;;;7.60;99.90;;;;;;5008313;28;20045;-52
2023/04/15 02:30:10;;;;;;;9.45;5.20;;;7.50;99.90;;;;;;5009343;28;20478;-50
2023/04/15 02:32:37;;;;;;;12.38;5.60;;;7.50;99.90;;;;;;5008975;28;20568;-49
2023/04/15 02:35:07;;;;;;;13.52;5.68;;;7.50;99.90;;;;;;5009524;28;20366;-57
2023/04/15 02:37:39;;;;;;;11.18;5.43;;;7.40;99.90;;;;;;5009310;28;20496;-56
2023/04/15 02:40:07;;;;;;;8.93;5.82;;;7.40;99.90;;;;;;4992726;28;20049;-53
2023/04/15 02:42:32;;;;;;;15.02;5.97;;;7.40;99.90;;;;;;5009729;28;20061;-50
2023/04/15 02:44:58;;;;;;;11.43;5.10;;;7.30;99.90;;;;;;5008518;28;20050;-50
2023/04/15 02:47:24;;;;;;;9.95;5.55;;;7.30;99.90;;;;;;5010032;28;20054;-55
2023/04/15 02:49:49;;;;;;;10.55;5.40;;;7.20;99.90;;;;;;5007968;28;20077;-54
2023/04/15 02:52:15;;;;;;;11.25;6.10;;;7.20;99.90;;;;;;5009649;28;20041;-53
2023/04/15 02:54:41;;;;;;;8.95;5.20;;;7.30;99.90;;;;;;5008455;28;20041;-52
2023/04/15 02:57:07;;;;;;;10.55;5.95;;;7.10;99.90;;;;;;5009104;28;20044;-50
2023/04/15 02:59:32;;;;;;;10.00;5.65;;;7.10;99.90;;;;;;5009566;28;20034;-53
2023/04/15 03:01:59;;;;;;;12.25;5.93;;;7.10;99.90;;;;;;5009733;28;20038;-53
2023/04/15 03:04:28;;;;;;;9.18;5.18;;;7.00;99.90;;;;;;5009247;28;20053;-51
2023/04/15 03:06:55;;;;;;;11.00;5.90;;;7.00;99.90;;;;;;5008971;28;20099;-54
2023/04/15 03:09:21;;;;;;;12.30;6.05;;;7.00;99.90;;;;;;5008032;28;20500;-55
2023/04/15 03:11:47;;;;;;;10.98;5.35;;;7.00;99.90;;;;;;5010102;28;20037;-52
2023/04/15 03:14:12;;;;;;;9.93;7.55;;;7.00;99.90;;;;;;5008129;28;20475;-57
2023/04/15 03:16:38;;;;;;;13.20;5.80;;;6.90;99.90;;;;;;5008974;28;20033;-57
2023/04/15 03:19:04;;;;;;;11.82;5.80;;;6.90;99.90;;;;;;5008202;28;20042;-48
2023/04/15 03:21:29;;;;;;;11.45;5.95;;;6.90;99.90;;;;;;5008742;28;20044;-51
2023/04/15 03:23:56;;;;;;;11.27;5.82;;;6.80;99.90;;;;;;5008024;28;20394;-53
2023/04/15 03:26:31;;;;;;;11.70;6.70;;;6.80;99.90;;;;;;5008877;28;20037;-53
2023/04/15 03:28:57;;;;;;;13.00;6.22;;;6.80;99.90;;;;;;5008574;28;20038;-49
2023/04/15 03:31:22;;;;;;;13.38;6.13;;;6.70;99.90;;;;;;5008856;28;20057;-56
2023/04/15 03:33:48;;;;;;;11.98;5.78;;;6.70;99.90;;;;;;5008993;28;20073;-53
2023/04/15 03:36:14;;;;;;;12.82;6.70;;;6.80;99.90;;;;;;5008151;28;20053;-57
2023/04/15 03:38:40;;;;;;;14.05;6.22;;;6.70;99.90;;;;;;5008663;28;20108;-50
2023/04/15 03:41:06;;;;;;;14.98;6.80;;;6.80;99.90;;;;;;5011321;28;20180;-48
2023/04/15 03:43:32;;;;;;;13.02;6.45;;;6.60;99.90;;;;;;4994551;28;20172;-52
2023/04/15 03:45:57;;;;;;;14.80;7.10;;;6.60;99.90;;;;;;5011513;28;20034;-55
2023/04/15 03:48:23;;;;;;;12.23;6.38;;;6.50;99.90;;;;;;5013464;28;20048;-50
2023/04/15 03:50:49;;;;;;;11.75;6.70;;;6.50;99.90;;;;;;5012612;28;20401;-57
2023/04/15 03:53:15;;;;;;;11.07;6.63;;;6.50;99.90;;;;;;5010543;28;20052;-53
2023/04/15 03:55:41;;;;;;;19.83;7.43;;;6.50;99.90;;;;;;5012086;28;20042;-53
2023/04/15 03:58:06;;;;;;;12.10;6.65;;;6.50;99.90;;;;;;5012097;28;20904;-56
2023/04/15 04:00:32;;;;;;;12.48;7.22;;;6.40;99.90;;;;;;4993324;28;20124;-52
2023/04/15 04:02:58;;;;;;;13.30;7.18;;;6.40;99.90;;;;;;5012420;28;20092;-54
2023/04/15 04:05:23;;;;;;;13.82;7.85;;;6.40;99.90;;;;;;5011630;28;20127;-57
2023/04/15 04:07:49;;;;;;;13.70;6.90;;;6.30;99.90;;;;;;4993920;28;20473;-54
2023/04/15 04:10:15;;;;;;;13.70;7.03;;;6.40;99.90;;;;;;5012003;28;20064;-59
2023/04/15 04:12:41;;;;;;;12.80;6.82;;;6.30;99.90;;;;;;5012238;28;20048;-55
2023/04/15 04:15:07;;;;;;;18.90;7.35;;;6.20;99.90;;;;;;5011489;28;20116;-57
2023/04/15 04:17:33;;;;;;;12.55;7.32;;;6.30;99.90;;;;;;5010955;28;20132;-55
2023/04/15 04:19:58;;;;;;;13.55;7.60;;;6.30;99.90;;;;;;5011699;28;20096;-53
2023/04/15 04:22:24;;;;;;;11.90;7.78;;;6.20;99.90;;;;;;4993824;28;20041;-51
2023/04/15 04:24:50;;;;;;;14.57;7.78;;;6.20;99.90;;;;;;4993362;28;20045;-55
2023/04/15 04:27:16;;;;;;;14.70;7.85;;;6.80;99.90;;;;;;5010590;28;20038;-52
2023/04/15 04:29:42;;;;;;;15.20;8.45;;;6.60;99.90;;;;;;5012093;28;20057;-57
2023/04/15 04:32:07;;;;;;;16.40;8.38;;;6.10;99.90;;;;;;5011235;28;20034;-52
2023/04/15 04:34:33;;;;;;;16.23;8.70;;;6.10;99.90;;;;;;5011671;28;20132;-55
2023/04/15 04:36:59;;;;;;;15.32;8.25;;;6.30;99.90;;;;;;5011368;28;20057;-53
2023/04/15 04:39:24;;;;;;;15.57;7.93;;;6.00;99.90;;;;;;5007223;28;20452;-53
2023/04/15 04:41:51;;;;;;;14.25;8.15;;;6.00;99.90;;;;;;5010490;28;20418;-57
2023/04/15 04:44:17;;;;;;;12.80;7.95;;;6.00;99.90;;;;;;5010886;28;20986;-50
2023/04/15 04:46:43;;;;;;;15.07;8.40;;;5.90;99.90;;;;;;5008961;28;20061;-52
2023/04/15 04:49:08;;;;;;;16.15;8.77;;;5.90;99.90;;;;;;5010298;28;20050;-55
2023/04/15 04:51:34;;;;;;;13.05;7.90;;;5.90;99.90;;;;;;4992397;28;20045;-53
2023/04/15 04:54:01;;;;;;;18.92;8.20;;;5.90;99.90;;;;;;5011616;28;20045;-56
2023/04/15 04:56:26;;;;;;;15.45;8.50;;;5.90;99.90;;;;;;5009840;28;20049;-55
2023/04/15 04:58:52;;;;;;;15.13;8.73;;;5.80;99.90;;;;;;5011161;28;20050;-54
2023/04/15 05:01:18;;;;;;;19.23;7.93;;;5.80;99.90;;;;;;5009008;28;20034;-53
2023/04/15 05:03:44;;;;;;;15.27;8.52;;;5.80;99.90;;;;;;5012641;28;20037;-52
2023/04/15 05:06:10;;;;;;;16.75;8.93;;;5.80;99.90;;;;;;5012326;28;20398;-54
2023/04/15 05:08:35;;;;;;;16.33;8.75;;;5.80;99.90;;;;;;5011063;28;20052;-55
2023/04/15 05:11:02;;;;;;;17.13;8.25;;;5.70;99.90;;;;;;5011243;28;20038;-53
2023/04/15 05:13:28;;;;;;;15.43;8.77;;;5.70;99.90;;;;;;4993391;28;20046;-51
2023/04/15 05:15:55;;;;;;;17.88;8.48;;;5.80;99.90;;;;;;5009691;28;20495;-50
2023/04/15 05:18:21;;;;;;;15.18;8.65;;;5.80;99.90;;;;;;5010641;28;20046;-54
2023/04/15 05:20:48;;;;;;;14.82;8.98;;;5.70;99.90;;;;;;5009672;28;20099;-52
2023/04/15 05:23:15;;;;;;;18.70;9.10;;;5.80;99.90;;;;;;5010697;28;20092;-51
2023/04/15 05:25:41;;;;;;;17.20;8.90;;;5.80;99.90;;;;;;4992117;28;20040;-50
2023/04/15 05:28:06;;;;;;;15.15;8.50;;;5.80;99.90;;;;;;5011517;28;20030;-51
2023/04/15 05:30:32;;;;;;;16.70;8.52;;;5.70;99.90;;;;;;5008837;28;20030;-50
2023/04/15 05:32:58;;;;;;;19.60;8.70;;;6.00;99.90;;;;;;4992922;28;20461;-49
2023/04/15 05:35:23;;;;;;;16.52;8.02;;;5.80;99.90;;;;;;4992041;28;20046;-50
2023/04/15 05:37:50;;;;;;;16.48;8.77;;;5.90;99.90;;;;;;5010679;28;20440;-55
2023/04/15 05:40:15;;;;;;;17.17;8.75;;;5.80;99.90;;;;;;5009815;28;20042;-49
2023/04/15 05:42:41;;;;;;;16.92;8.57;;;5.90;99.90;;;;;;5011195;28;20057;-53
2023/04/15 05:45:08;;;;;;;17.40;9.05;;;6.00;99.90;;;;;;5006739;28;20048;-55
2023/04/15 05:47:37;;;;;;;15.82;8.85;;;6.00;99.90;;;;;;5010002;28;20080;-53
2023/04/15 05:50:03;;;;;;;17.98;9.18;;;6.10;99.90;;;;;;5022743;28;20443;-49
2023/04/15 05:52:29;;;;;;;19.75;9.50;;;6.10;99.90;;;;;;5011783;28;20046;-54
2023/04/15 05:54:55;;;;;;;19.70;8.93;;;6.10;99.90;;;;;;5009559;28;20053;-50
2023/04/15 05:57:21;;;;;;;15.00;8.15;;;6.40;99.90;;;;;;5014432;28;20041;-51
2023/04/15 05:59:46;;;;;;;19.23;9.35;;;6.40;99.90;;;;;;5011462;28;20041;-52
2023/04/15 06:02:12;;;;;;;17.52;9.15;;;6.20;99.90;;;;;;5011477;28;20087;-53
2023/04/15 06:04:38;;;;;;;19.30;10.05;;;6.30;99.90;;;;;;5011161;28;20362;-49
2023/04/15 06:07:04;;;;;;;17.38;9.10;;;6.40;99.90;;;;;;5010636;28;20041;-51
2023/04/15 06:09:29;;;;;;;17.58;10.02;;;6.40;99.90;;;;;;5010669;28;20074;-55
2023/04/15 06:11:56;;;;;;;16.35;9.07;;;6.40;99.90;;;;;;5010322;28;20033;-53
2023/04/15 06:14:22;;;;;;;18.52;10.68;;;6.50;99.90;;;;;;5010450;28;20044;-53
2023/04/15 06:16:48;;;;;;;17.40;9.57;;;6.40;99.90;;;;;;5010841;28;20038;-51
2023/04/15 06:19:13;;;;;;;16.80;10.02;;;6.60;99.90;;;;;;5010969;28;20120;-56
2023/04/15 06:21:39;;;;;;;15.75;9.02;;;6.50;99.90;;;;;;5010049;28;20569;-52
2023/04/15 06:24:05;;;;;;;16.48;9.35;;;6.50;99.90;;;;;;5011082;28;20042;-55
2023/04/15 06:26:31;;;;;;;15.13;9.10;;;6.50;99.90;;;;;;5016069;28;20034;-47
2023/04/15 06:28:57;;;;;;;16.98;9.07;;;6.50;99.90;;;;;;5008943;28;20052;-52
2023/04/15 06:31:22;;;;;;;14.82;8.80;;;6.70;99.90;;;;;;5012808;28;20068;-55
2023/04/15 06:33:48;;;;;;;18.00;9.02;;;6.50;99.90;;;;;;5010238;28;20040;-50
2023/04/15 06:36:14;;;;;;;15.02;9.25;;;6.50;99.90;;;;;;5013046;28;20045;-52
2023/04/15 06:38:40;;;;;;;14.57;8.75;;;6.70;99.90;;;;;;5022679;28;20034;-56
2023/04/15 06:41:06;;;;;;;16.45;9.32;;;6.50;99.90;;;;;;5010049;28;20101;-52
2023/04/15 06:43:32;;;;;;;17.52;8.90;;;6.60;99.90;;;;;;5008882;28;20045;-49
2023/04/15 06:45:58;;;;;;;15.93;8.60;;;6.70;99.90;;;;;;5009364;28;20401;-52
2023/04/15 06:48:24;;;;;;;16.08;8.70;;;6.70;99.90;;;;;;5007551;28;20050;-53
2023/04/15 06:50:50;;;;;;;15.68;9.00;;;6.80;99.90;;;;;;5009974;28;20104;-49
2023/04/15 06:53:16;;;;;;;14.45;8.30;;;6.90;99.90;;;;;;5010070;28;20042;-53
2023/04/15 06:55:41;;;;;;;16.00;8.60;;;6.80;99.90;;;;;;5008526;28;20041;-51
2023/04/15 06:58:07;;;;;;;14.45;8.02;;;7.20;99.90;;;;;;5009300;28;20547;-52
2023/04/15 07:00:33;;;;;;;13.15;8.60;;;7.10;99.90;;;;;;5006127;28;20465;-58
2023/04/15 07:03:02;;;;;;;16.75;8.20;;;7.10;99.90;;;;;;5009887;28;20048;-52
2023/04/15 07:05:29;;;;;;;16.67;8.65;;;7.30;99.90;;;;;;5005988;28;20088;-55
2023/04/15 07:07:56;;;;;;;13.00;7.80;;;7.30;99.90;;;;;;5004982;28;20782;-50
2023/04/15 07:10:21;;;;;;;15.82;8.60;;;7.40;99.90;;;;;;5004588;28;20037;-54
2023/04/15 07:12:48;;;;;;;15.25;8.80;;;7.50;99.90;;;;;;5006067;28;20034;-55
2023/04/15 07:15:13;;;;;;;14.30;8.07;;;7.60;99.90;;;;;;5005511;28;20042;-58
2023/04/15 07:17:41;;;;;;;12.48;7.53;;;7.70;99.90;;;;;;5009203;28;20040;-52
2023/04/15 07:20:08;;;;;;;16.33;8.88;;;7.80;99.90;;;;;;5008286;28;20068;-54
2023/04/15 07:22:34;;;;;;;15.88;8.88;;;7.80;99.90;;;;;;5010169;28;20050;-52
2023/04/15 07:24:59;;;;;;;17.75;9.52;;;7.90;99.90;;;;;;5008542;28;20159;-51
2023/04/15 07:27:26;;;;;;;14.63;8.60;;;8.00;99.90;;;;;;5011847;28;20041;-49
2023/04/15 07:29:52;;;;;;;17.83;9.10;;;8.00;99.90;;;;;;5011084;28;20385;-53
2023/04/15 07:32:18;;;;;;;15.68;8.85;;;8.10;99.90;;;;;;5010161;28;20266;-48
2023/04/15 07:34:44;;;;;;;15.70;9.13;;;8.10;99.90;;;;;;5009928;28;20119;-51
2023/04/15 07:37:09;;;;;;;14.23;8.75;;;8.20;99.90;;;;;;5012744;28;20034;-56
2023/04/15 07:39:36;;;;;;;14.70;8.48;;;8.20;99.90;;;;;;5009752;28;20476;-57
2023/04/15 07:42:02;;;;;;;17.95;9.10;;;8.30;99.90;;;;;;5010583;28;20409;-56
2023/04/15 07:44:28;;;;;;;17.33;8.90;;;8.40;99.90;;;;;;5029149;28;20116;-56
2023/04/15 07:46:55;;;;;;;14.85;10.45;;;8.40;99.90;;;;;;5005261;28;20562;-53
2023/04/15 07:49:21;;;;;;;14.10;8.50;;;8.60;99.90;;;;;;4989396;28;20054;-47
2023/04/15 07:51:47;;;;;;;13.50;7.97;;;8.70;99.90;;;;;;4989433;28;20432;-53
2023/04/15 07:54:16;;;;;;;12.40;9.77;;;8.80;99.90;;;;;;5010792;28;20426;-50
2023/04/15 07:56:42;;;;;;;10.20;8.95;;;8.90;99.90;;;;;;4993050;28;20096;-55
2023/04/15 07:59:08;;;;;;;11.75;6.40;;;9.00;99.90;;;;;;5013294;28;20034;-53
2023/04/15 08:01:35;;;;;;;10.23;6.53;;;9.10;99.90;;;;;;5002924;28;20030;-55
2023/04/15 08:04:01;;;;;;;12.77;7.07;;;9.20;99.90;;;;;;5006873;28;20044;-49
2023/04/15 08:06:27;;;;;;;12.90;6.20;;;9.30;99.90;;;;;;5002127;28;20536;-57
2023/04/15 08:08:54;;;;;;;11.95;6.82;;;9.50;99.90;;;;;;5010311;28;20041;-51
2023/04/15 08:11:20;;;;;;;10.35;5.95;;;9.50;99.90;;;;;;5009383;28;20129;-58
2023/04/15 08:13:46;;;;;;;11.63;6.38;;;9.60;99.90;;;;;;5006714;28;20049;-52
2023/04/15 08:16:16;;;;;;;10.38;6.28;;;9.60;99.90;;;;;;4993132;28;20042;-53
2023/04/15 08:18:41;;;;;;;11.65;7.15;;;9.70;99.90;;;;;;5011412;28;20069;-55
2023/04/15 08:21:08;;;;;;;13.38;7.72;;;9.70;99.90;;;;;;5002509;28;20077;-53
2023/04/15 08:23:33;;;;;;;13.43;7.28;;;9.80;99.90;;;;;;4997303;28;20145;-56
2023/04/15 08:25:59;;;;;;;35.28;9.27;;;9.70;99.90;;;;;;4987928;28;20124;-53
2023/04/15 08:28:25;;;;;;;26.63;7.40;;;9.70;99.90;;;;;;5009969;28;20045;-56
2023/04/15 08:30:52;;;;;;;65.95;6.93;;;9.80;99.90;;;;;;5003050;28;20458;-55
2023/04/15 08:33:18;;;;;;;60.33;8.02;;;9.80;99.90;;;;;;4975974;28;20046;-53
2023/04/15 08:35:43;;;;;;;34.90;7.05;;;9.90;99.90;;;;;;5010986;28;20038;-55
2023/04/15 08:38:09;;;;;;;51.50;9.73;;;9.90;99.90;;;;;;5010758;28;20034;-58
2023/04/15 08:40:41;;;;;;;66.50;7.80;;;9.90;99.90;;;;;;4994431;28;20042;-57
2023/04/15 08:43:10;;;;;;;67.78;8.82;;;10.00;99.90;;;;;;5011180;28;20085;-53
2023/04/15 08:45:38;;;;;;;25.77;5.55;;;10.10;99.90;;;;;;5006719;28;20524;-53
2023/04/15 08:48:04;;;;;;;49.72;7.40;;;10.20;99.90;;;;;;5011765;28;20111;-56
2023/04/15 08:50:31;;;;;;;39.55;6.00;;;10.30;99.90;;;;;;5009875;28;20089;-52
2023/04/15 08:52:58;;;;;;;17.15;5.85;;;10.30;99.90;;;;;;5011597;28;20038;-53
2023/04/15 08:55:29;;;;;;;45.35;5.90;;;10.50;99.90;;;;;;5011462;28;20033;-52
2023/04/15 08:57:56;;;;;;;14.95;5.80;;;10.60;99.90;;;;;;5008386;28;20133;-53
2023/04/15 09:00:22;;;;;;;9.10;5.03;;;10.70;99.90;;;;;;5010859;28;20048;-59
2023/04/15 09:02:48;;;;;;;21.38;5.18;;;10.70;99.90;;;;;;5011612;28;20048;-51
2023/04/15 09:05:15;;;;;;;55.03;6.82;;;10.80;99.90;;;;;;5011118;28;20634;-51
2023/04/15 09:07:41;;;;;;;7.28;3.60;;;10.90;99.90;;;;;;5019918;28;20041;-54
2023/04/15 09:10:07;;;;;;;6.35;3.55;;;10.90;99.90;;;;;;5013995;28;20640;-58
2023/04/15 09:12:35;;;;;;;8.75;3.78;;;11.00;99.90;;;;;;5009988;28;20533;-55
2023/04/15 09:15:01;;;;;;;7.68;3.70;;;11.20;99.90;;;;;;5010577;28;20100;-56
2023/04/15 09:17:27;;;;;;;5.68;3.65;;;11.20;99.90;;;;;;5009608;28;20034;-51
2023/04/15 09:20:09;;;;;;;8.20;3.90;;;11.20;99.90;;;;;;5012832;28;20060;-52
2023/04/15 09:22:36;;;;;;;7.97;3.90;;;11.30;99.90;;;;;;5019877;28;20830;-52
2023/04/15 09:25:02;;;;;;;7.43;4.10;;;11.30;99.90;;;;;;5011216;28;20504;-55
2023/04/15 09:27:28;;;;;;;7.50;3.95;;;11.20;99.90;;;;;;5010817;28;20038;-55
2023/04/15 09:29:54;;;;;;;7.43;4.13;;;11.20;99.90;;;;;;5009472;28;20401;-54
2023/04/15 09:32:22;;;;;;;6.80;3.40;;;11.30;99.90;;;;;;5009539;28;20034;-57
2023/04/15 09:34:48;;;;;;;9.10;3.90;;;11.40;99.90;;;;;;5010821;28;20493;-50
2023/04/15 09:37:17;;;;;;;8.15;3.38;;;11.50;99.90;;;;;;5010602;28;20088;-51
2023/04/15 09:39:50;;;;;;;47.47;5.28;;;11.50;99.90;;;;;;5011044;28;20030;-57
2023/04/15 09:42:22;;;;;;;8.45;3.22;;;11.40;99.90;;;;;;5010498;28;20046;-50
2023/04/15 09:44:48;;;;;;;9.63;3.67;;;11.30;99.90;;;;;;5009026;28;20362;-56
2023/04/15 09:47:27;;;;;;;7.28;3.60;;;11.20;99.90;;;;;;5010655;28;20037;-56
2023/04/15 09:49:57;;;;;;;8.55;3.63;;;11.10;99.90;;;;;;5008460;28;20058;-54
2023/04/15 09:52:22;;;;;;;7.20;3.28;;;11.10;99.90;;;;;;5010163;28;20037;-58
2023/04/15 09:54:54;;;;;;;9.15;3.35;;;11.10;99.90;;;;;;5004479;28;20038;-52
2023/04/15 09:57:20;;;;;;;7.82;3.38;;;11.10;99.90;;;;;;4993861;28;20490;-53
2023/04/15 09:59:47;;;;;;;9.55;3.60;;;11.00;99.90;;;;;;4991797;28;20037;-52
2023/04/15 10:02:12;;;;;;;7.28;3.60;;;10.90;99.90;;;;;;5009690;28;20062;-53
2023/04/15 10:04:40;;;;;;;8.52;4.30;;;10.90;99.90;;;;;;5009749;28;20105;-51
2023/04/15 10:07:08;;;;;;;6.80;3.45;;;10.90;99.90;;;;;;5009629;28;20059;-55
2023/04/15 10:09:35;;;;;;;4.20;2.50;;;10.80;99.90;;;;;;5008952;28;20038;-54
2023/04/15 10:12:03;;;;;;;4.90;2.20;;;10.90;99.90;;;;;;5010233;28;20504;-52
2023/04/15 10:14:32;;;;;;;5.50;2.45;;;10.90;99.90;;;;;;5007556;28;20033;-55
2023/04/15 10:17:01;;;;;;;5.47;2.33;;;10.90;99.90;;;;;;5009673;28;20056;-50
2023/04/15 10:19:30;;;;;;;6.72;2.47;;;10.90;99.90;;;;;;5008860;28;20065;-56
2023/04/15 10:21:55;;;;;;;6.20;2.78;;;10.80;99.90;;;;;;5009441;28;20526;-55
2023/04/15 10:24:22;;;;;;;12.45;3.55;;;10.70;99.90;;;;;;5008392;28;20038;-53
2023/04/15 10:26:50;;;;;;;7.10;2.85;;;10.70;99.90;;;;;;5008895;28;20034;-54
2023/04/15 10:29:16;;;;;;;11.65;3.53;;;10.60;99.90;;;;;;5007955;28;20504;-56
2023/04/15 10:31:43;;;;;;;8.90;3.25;;;10.60;99.90;;;;;;5009320;28;20437;-56
2023/04/15 10:34:09;;;;;;;8.75;3.38;;;10.60;99.90;;;;;;4973552;28;20042;-58
2023/04/15 10:36:36;;;;;;;6.07;2.40;;;10.60;99.90;;;;;;5008710;28;20038;-58
2023/04/15 10:39:21;;;;;;;7.30;3.03;;;10.70;99.90;;;;;;5008926;28;20513;-52
2023/04/15 10:42:09;;;;;;;8.38;2.80;;;10.90;99.90;;;;;;5001636;28;20054;-53
2023/04/15 10:44:48;;;;;;;8.70;2.55;;;11.30;99.90;;;;;;4995724;28;20073;-55
2023/04/15 10:47:19;;;;;;;10.45;2.60;;;11.50;99.90;;;;;;4996592;28;20046;-54
2023/04/15 10:49:51;;;;;;;5.28;2.13;;;11.60;99.90;;;;;;5008383;28;20089;-55
2023/04/15 10:52:24;;;;;;;6.22;2.08;;;11.70;99.90;;;;;;5007368;28;20092;-53
2023/04/15 10:55:14;;;;;;;5.30;2.10;;;11.70;99.90;;;;;;5001726;28;20061;-54
2023/04/15 10:57:42;;;;;;;6.38;1.88;;;11.80;99.90;;;;;;5004019;28;20121;-57
2023/04/15 11:00:08;;;;;;;6.70;1.90;;;11.90;99.90;;;;;;5007996;28;20053;-55
2023/04/15 11:02:50;;;;;;;2.95;1.40;;;12.00;99.90;;;;;;5008091;28;20046;-52
2023/04/15 11:05:17;;;;;;;3.72;1.25;;;12.10;99.90;;;;;;5006693;28;20038;-58
2023/04/15 11:07:43;;;;;;;4.78;1.00;;;12.20;99.90;;;;;;5009360;28;20061;-54
2023/04/15 11:10:29;;;;;;;3.05;1.10;;;12.30;99.90;;;;;;5008884;28;20042;-55
2023/04/15 11:13:14;;;;;;;4.03;1.30;;;12.50;99.90;;;;;;5002322;28;20045;-53
2023/04/15 11:15:44;;;;;;;4.88;1.35;;;12.50;99.90;;;;;;5008607;28;20034;-52
2023/04/15 11:18:15;;;;;;;5.45;1.80;;;12.40;99.90;;;;;;5009009;28;20084;-57
2023/04/15 11:20:47;;;;;;;6.28;1.30;;;12.40;99.90;;;;;;5006571;28;20169;-56
2023/04/15 11:23:14;;;;;;;5.10;1.42;;;12.40;99.90;;;;;;5008746;28;20048;-51
2023/04/15 11:25:40;;;;;;;5.22;1.50;;;12.30;99.90;;;;;;5006686;28;20038;-57
2023/04/15 11:28:06;;;;;;;3.92;1.38;;;12.30;99.90;;;;;;5009041;28;20042;-54
2023/04/15 11:30:36;;;;;;;6.93;1.70;;;12.20;99.90;;;;;;5008774;28;20381;-57
2023/04/15 11:33:04;;;;;;;6.07;1.38;;;12.10;99.90;;;;;;5009063;28;20038;-53
2023/04/15 11:35:30;;;;;;;3.47;1.50;;;12.00;99.90;;;;;;5008987;28;20388;-53
2023/04/15 11:37:57;;;;;;;4.93;1.70;;;11.90;99.90;;;;;;5008578;28;20088;-57
2023/04/15 11:40:28;;;;;;;4.82;1.77;;;11.90;99.90;;;;;;5008019;28;20508;-54
2023/04/15 11:43:10;;;;;;;3.33;1.25;;;11.90;99.90;;;;;;5009841;28;20049;-52
2023/04/15 11:45:37;;;;;;;3.97;1.60;;;11.90;99.90;;;;;;5008928;28;20042;-56
2023/04/15 11:48:06;;;;;;;2.53;1.20;;;11.80;99.90;;;;;;5009564;28;20046;-53
2023/04/15 11:50:32;;;;;;;4.65;0.98;;;11.70;99.90;;;;;;5007279;28;20041;-53
2023/04/15 11:53:01;;;;;;;4.80;1.30;;;11.70;99.90;;;;;;5010433;28;20119;-52
2023/04/15 11:55:26;;;;;;;5.20;1.50;;;11.80;99.90;;;;;;5007503;28;20146;-54
2023/04/15 11:58:12;;;;;;;4.40;1.58;;;11.70;99.90;;;;;;5008615;28;20133;-56
2023/04/15 12:00:40;;;;;;;4.28;1.13;;;11.70;99.90;;;;;;5008456;28;20038;-53
2023/04/15 12:03:18;;;;;;;4.13;1.40;;;11.60;99.90;;;;;;4994176;28;20053;-50
2023/04/15 12:06:07;;;;;;;5.20;1.40;;;11.50;99.90;;;;;;4996317;28;20037;-51
2023/04/15 12:08:54;;;;;;;4.75;1.48;;;11.40;99.90;;;;;;5012236;28;20052;-55
2023/04/15 12:11:52;;;;;;;4.60;1.48;;;11.30;99.90;;;;;;5012855;28;20099;-55
2023/04/15 12:14:24;;;;;;;4.05;1.52;;;11.30;99.90;;;;;;5012722;28;20078;-53
2023/04/15 12:16:56;;;;;;;7.68;1.52;;;11.30;99.90;;;;;;5002538;28;20517;-53
2023/04/15 12:19:40;;;;;;;3.38;1.25;;;11.40;99.90;;;;;;4999545;28;20140;-57
2023/04/15 12:22:14;;;;;;;4.45;1.40;;;11.40;99.90;;;;;;5004690;28;20038;-58
2023/04/15 12:24:47;;;;;;;5.35;2.28;;;11.30;99.90;;;;;;5002468;28;20048;-56
2023/04/15 12:27:14;;;;;;;4.45;1.50;;;11.20;99.90;;;;;;5003574;28;20038;-52
2023/04/15 12:29:42;;;;;;;7.43;1.60;;;11.20;99.90;;;;;;5004143;28;20073;-55
2023/04/15 12:32:15;;;;;;;6.18;1.70;;;11.10;99.90;;;;;;5006445;28;20118;-54
2023/04/15 12:34:44;;;;;;;4.05;1.38;;;11.10;99.90;;;;;;5004099;28;20040;-57
2023/04/15 12:37:12;;;;;;;6.55;1.60;;;11.10;99.90;;;;;;4991629;28;20068;-49
2023/04/15 12:39:40;;;;;;;4.43;1.70;;;11.00;99.90;;;;;;4992159;28;20051;-57
2023/04/15 12:42:07;;;;;;;7.13;1.52;;;11.00;99.90;;;;;;5011930;28;20092;-52
2023/04/15 12:44:35;;;;;;;3.88;1.83;;;11.00;99.90;;;;;;5010552;28;20069;-51
2023/04/15 12:47:01;;;;;;;3.63;1.48;;;11.00;99.90;;;;;;5010993;28;20041;-55
2023/04/15 12:49:28;;;;;;;5.72;1.75;;;11.00;99.90;;;;;;5021530;28;20058;-56